createdAt,value
2022-09-12T00:01:29.993Z,100320.28
2022-09-12T00:03:58.255Z,100321.13
2022-09-12T00:06:32.483Z,100317.63
2022-09-12T00:09:00.902Z,100314.09
2022-09-12T00:11:27.601Z,100310.56
2022-09-12T00:14:00.647Z,100307.06
2022-09-12T00:16:28.258Z,100311.50
2022-09-12T00:18:54.869Z,100313.25
2022-09-12T00:21:22.104Z,100306.19
2022-09-12T00:23:48.857Z,100313.25
2022-09-12T00:26:15.737Z,100306.19
2022-09-12T00:28:42.268Z,100314.16
2022-09-12T00:31:14.023Z,100317.72
2022-09-12T00:33:40.796Z,100323.97
2022-09-12T00:36:11.830Z,100309.81
2022-09-12T00:38:41.820Z,100315.13
2022-09-12T00:41:13.627Z,100316.09
2022-09-12T00:43:42.079Z,100316.09
2022-09-12T00:46:11.759Z,100316.94
2022-09-12T00:48:47.612Z,100326.84
2022-09-12T00:51:14.259Z,100317.03
2022-09-12T00:53:41.470Z,100319.72
2022-09-12T00:56:08.038Z,100321.53
2022-09-12T00:58:37.743Z,100324.25
2022-09-12T01:01:04.382Z,100320.66
2022-09-12T01:03:30.985Z,100332.19
2022-09-12T01:06:14.300Z,100325.13
2022-09-12T01:08:41.306Z,100318.94
2022-09-12T01:11:08.544Z,100319.03
2022-09-12T01:13:35.527Z,100312.75
2022-09-12T01:16:06.071Z,100310.19
2022-09-12T01:18:45.595Z,100310.19
2022-09-12T01:21:34.765Z,100310.19
2022-09-12T01:24:07.208Z,100306.75
2022-09-12T01:26:45.514Z,100305.03
2022-09-12T01:29:17.863Z,100305.03
2022-09-12T01:35:02.903Z,100306.75
2022-09-12T01:37:31.605Z,100310.38
2022-09-12T01:40:16.249Z,100310.38
2022-09-12T01:42:56.772Z,100310.47
2022-09-12T01:45:29.327Z,100312.28
2022-09-12T01:48:04.580Z,100313.25
2022-09-12T01:50:34.005Z,100316.84
2022-09-12T01:53:14.527Z,100313.31
2022-09-12T01:55:46.801Z,100315.13
2022-09-12T01:58:19.019Z,100313.41
2022-09-12T02:00:54.673Z,100311.59
2022-09-12T02:03:24.426Z,100318.75
2022-09-12T02:06:03.800Z,100320.56
2022-09-12T02:08:40.791Z,100314.38
2022-09-12T02:11:09.254Z,100311.72
2022-09-12T02:13:44.249Z,100312.69
2022-09-12T02:16:30.885Z,100315.34
2022-09-12T02:18:59.854Z,100313.53
2022-09-12T02:21:26.419Z,100308.19
2022-09-12T02:23:57.608Z,100300.28
2022-09-12T02:26:32.685Z,100309.22
2022-09-12T02:28:59.403Z,100302.09
2022-09-12T02:31:34.076Z,100309.22
2022-09-12T02:34:08.211Z,100309.22
2022-09-12T02:36:40.893Z,100316.38
2022-09-12T02:39:07.447Z,100312.84
2022-09-12T02:41:34.024Z,100318.19
2022-09-12T02:44:01.115Z,100325.31
2022-09-12T02:46:44.714Z,100320.94
2022-09-12T02:49:11.350Z,100321.03
2022-09-12T02:51:38.134Z,100329.00
2022-09-12T02:54:06.515Z,100329.00
2022-09-12T02:56:33.059Z,100326.34
2022-09-12T02:59:04.916Z,100331.69
2022-09-12T03:01:49.179Z,100321.97
2022-09-12T03:04:43.733Z,100325.59
2022-09-12T03:07:15.859Z,100328.16
2022-09-12T03:10:08.063Z,100329.88
2022-09-12T03:12:40.300Z,100316.66
2022-09-12T03:15:15.564Z,100325.59
2022-09-12T03:18:01.577Z,100331.78
2022-09-12T03:20:38.070Z,100337.12
2022-09-12T03:23:08.823Z,100329.22
2022-09-12T03:25:37.460Z,100332.75
2022-09-12T03:28:16.452Z,100331.00
2022-09-12T03:30:48.646Z,100321.22
2022-09-12T03:33:19.577Z,100323.97
2022-09-12T03:35:46.669Z,100333.66
2022-09-12T03:38:13.372Z,100336.44
2022-09-12T03:40:39.965Z,100336.44
2022-09-12T03:43:07.472Z,100332.06
2022-09-12T03:45:34.512Z,100329.41
2022-09-12T03:48:01.164Z,100331.22
2022-09-12T03:50:27.750Z,100330.34
2022-09-12T03:52:54.300Z,100334.72
2022-09-12T03:55:20.860Z,100338.13
2022-09-12T03:57:47.399Z,100343.28
2022-09-12T04:00:19.015Z,100343.88
2022-09-12T04:02:46.335Z,100340.06
2022-09-12T04:05:12.888Z,100333.59
2022-09-12T04:07:39.439Z,100342.16
2022-09-12T04:10:06.447Z,100338.37
2022-09-12T04:12:33.124Z,100332.66
2022-09-12T04:14:59.663Z,100338.47
2022-09-12T04:17:26.195Z,100338.00
2022-09-12T04:19:52.777Z,100343.91
2022-09-12T04:22:19.610Z,100337.34
2022-09-12T04:24:46.170Z,100333.53
2022-09-12T04:27:12.712Z,100330.56
2022-09-12T04:29:39.313Z,100341.13
2022-09-12T04:32:06.031Z,100342.75
2022-09-12T04:34:32.642Z,100337.31
2022-09-12T04:36:59.323Z,100345.25
2022-09-12T04:39:25.876Z,100339.91
2022-09-12T04:41:52.416Z,100338.09
2022-09-12T04:44:18.976Z,100341.59
2022-09-12T04:46:46.715Z,100335.31
2022-09-12T04:49:14.229Z,100343.31
2022-09-12T04:51:41.438Z,100341.59
2022-09-12T04:54:15.705Z,100342.47
2022-09-12T04:56:43.871Z,100344.28
2022-09-12T04:59:11.319Z,100346.09
2022-09-12T05:01:37.942Z,100354.09
2022-09-12T05:04:04.579Z,100349.72
2022-09-12T05:06:33.024Z,100361.25
2022-09-12T05:09:00.267Z,100351.50
2022-09-12T05:11:46.713Z,100351.50
2022-09-12T05:14:15.007Z,100350.66
2022-09-12T05:16:42.344Z,100358.66
2022-09-12T05:19:11.300Z,100356.09
2022-09-12T05:21:37.847Z,100362.16
2022-09-12T05:24:06.206Z,100364.94
2022-09-12T05:26:32.744Z,100362.37
2022-09-12T05:28:59.344Z,100365.91
2022-09-12T05:31:26.753Z,100370.38
2022-09-12T05:33:54.363Z,100377.53
2022-09-12T05:36:30.344Z,100381.12
2022-09-12T05:38:56.954Z,100379.44
2022-09-12T05:41:25.206Z,100399.81
2022-09-12T05:43:59.257Z,100395.44
2022-09-12T05:46:35.635Z,100402.56
2022-09-12T05:49:06.016Z,100389.25
2022-09-12T05:51:35.108Z,100390.94
2022-09-12T05:54:03.355Z,100399.72
2022-09-12T05:56:31.284Z,100387.13
2022-09-12T05:58:59.083Z,100391.34
2022-09-12T06:01:26.199Z,100389.34
2022-09-12T06:03:54.455Z,100394.38
2022-09-12T06:06:26.028Z,100402.09
2022-09-12T06:08:53.615Z,100389.44
2022-09-12T06:11:22.985Z,100392.84
2022-09-12T06:13:50.968Z,100394.38
2022-09-12T06:16:26.090Z,100399.59
2022-09-12T06:18:54.419Z,100395.88
2022-09-12T06:21:21.349Z,100393.13
2022-09-12T06:23:48.196Z,100398.38
2022-09-12T06:26:16.402Z,100399.16
2022-09-12T06:28:45.075Z,100406.19
2022-09-12T06:31:19.102Z,100407.91
2022-09-12T06:33:47.768Z,100404.38
2022-09-12T06:36:22.160Z,100403.41
2022-09-12T06:38:51.508Z,100400.75
2022-09-12T06:41:18.049Z,100404.19
2022-09-12T06:43:44.662Z,100410.47
2022-09-12T06:46:13.101Z,100411.34
2022-09-12T06:48:42.178Z,100409.53
2022-09-12T06:51:14.803Z,100406.00
2022-09-12T06:53:41.684Z,100412.19
2022-09-12T06:56:13.566Z,100404.25
2022-09-12T06:58:40.530Z,100407.91
2022-09-12T07:01:09.599Z,100406.19
2022-09-12T07:03:36.347Z,100398.28
2022-09-12T07:06:04.326Z,100407.22
2022-09-12T07:08:32.009Z,100406.47
2022-09-12T07:11:01.105Z,100405.59
2022-09-12T07:13:27.646Z,100417.22
2022-09-12T07:15:54.211Z,100421.72
2022-09-12T07:18:21.186Z,100422.75
2022-09-12T07:20:47.727Z,100406.75
2022-09-12T07:23:14.293Z,100414.75
2022-09-12T07:25:40.854Z,100415.72
2022-09-12T07:28:07.412Z,100407.72
2022-09-12T07:30:33.983Z,100422.88
2022-09-12T07:33:00.548Z,100419.22
2022-09-12T07:35:27.096Z,100411.22
2022-09-12T07:37:53.990Z,100421.06
2022-09-12T07:40:20.640Z,100418.44
2022-09-12T07:42:47.953Z,100428.28
2022-09-12T07:45:14.516Z,100425.72
2022-09-12T07:47:41.082Z,100422.09
2022-09-12T07:50:08.029Z,100415.91
2022-09-12T07:52:34.579Z,100415.91
2022-09-12T07:55:01.270Z,100426.56
2022-09-12T07:57:27.954Z,100423.91
2022-09-12T07:59:54.616Z,100421.22
2022-09-12T08:02:21.275Z,100422.94
2022-09-12T08:04:48.572Z,100418.56
2022-09-12T08:07:15.315Z,100421.13
2022-09-12T08:09:41.895Z,100415.72
2022-09-12T08:12:08.456Z,100412.06
2022-09-12T08:14:35.011Z,100419.13
2022-09-12T08:17:01.552Z,100421.78
2022-09-12T08:19:28.153Z,100416.37
2022-09-12T08:21:54.721Z,100416.28
2022-09-12T08:24:21.274Z,100424.13
2022-09-12T08:26:47.811Z,100417.91
2022-09-12T08:29:14.520Z,100418.78
2022-09-12T08:31:42.487Z,100424.88
2022-09-12T08:34:18.406Z,100423.06
2022-09-12T08:36:45.015Z,100415.72
2022-09-12T08:39:12.021Z,100410.28
2022-09-12T08:41:40.776Z,100418.09
2022-09-12T08:44:29.057Z,100423.22
2022-09-12T08:47:07.590Z,100412.47
2022-09-12T08:49:34.938Z,100413.19
2022-09-12T08:52:06.095Z,100416.66
2022-09-12T08:54:34.934Z,100413.75
2022-09-12T08:57:04.987Z,100410.13
2022-09-12T08:59:46.465Z,100410.13
2022-09-12T09:02:36.445Z,100411.88
2022-09-12T09:05:15.159Z,100409.81
2022-09-12T09:07:55.040Z,100409.81
2022-09-12T09:10:35.219Z,100415.09
2022-09-12T09:13:04.487Z,100413.16
2022-09-12T09:15:37.847Z,100414.13
2022-09-12T09:18:06.433Z,100410.50
2022-09-12T09:20:37.177Z,100398.00
2022-09-12T09:23:05.236Z,100399.81
2022-09-12T09:25:53.779Z,100402.28
2022-09-12T09:28:36.000Z,100405.72
2022-09-12T09:31:02.595Z,100405.72
2022-09-12T09:33:33.759Z,100402.06
2022-09-12T09:36:26.569Z,100403.81
2022-09-12T09:38:59.915Z,100401.03
2022-09-12T09:41:48.182Z,100401.88
2022-09-12T09:44:14.755Z,100403.81
2022-09-12T09:46:43.716Z,100405.50
2022-09-12T09:49:12.793Z,100406.47
2022-09-12T09:51:40.074Z,100399.50
2022-09-12T09:54:24.779Z,100396.94
2022-09-12T09:56:51.364Z,100393.72
2022-09-12T09:59:27.039Z,100405.25
2022-09-12T10:01:55.078Z,100402.69
2022-09-12T10:04:31.701Z,100404.59
2022-09-12T10:07:02.299Z,100393.19
2022-09-12T10:09:37.020Z,100396.69
2022-09-12T10:12:28.811Z,100401.25
2022-09-12T10:15:00.604Z,100398.69
2022-09-12T10:17:33.798Z,100390.69
2022-09-12T10:20:19.830Z,100397.19
2022-09-12T10:22:47.303Z,100397.41
2022-09-12T10:25:15.571Z,100400.25
2022-09-12T10:27:42.264Z,100400.44
2022-09-12T10:30:19.841Z,100411.34
2022-09-12T10:32:50.606Z,100410.69
2022-09-12T10:35:20.921Z,100407.22
2022-09-12T10:38:30.610Z,100407.41
2022-09-12T10:41:05.555Z,100401.41
2022-09-12T10:43:39.484Z,100400.94
2022-09-12T10:46:18.219Z,100393.13
2022-09-12T10:48:46.007Z,100397.78
2022-09-12T10:51:26.471Z,100392.47
2022-09-12T10:53:57.974Z,100399.72
2022-09-12T10:56:29.159Z,100392.00
2022-09-12T10:59:29.379Z,100393.16
2022-09-12T11:02:14.863Z,100384.28
2022-09-12T11:04:50.403Z,100378.09
2022-09-12T11:07:46.837Z,100389.63
2022-09-12T11:10:17.084Z,100383.50
2022-09-12T11:13:22.227Z,100392.59
2022-09-12T11:16:10.826Z,100384.75
2022-09-12T11:18:37.226Z,100379.81
2022-09-12T11:21:19.308Z,100373.81
2022-09-12T11:24:07.912Z,100379.53
2022-09-12T11:27:02.777Z,100376.09
2022-09-12T11:29:47.522Z,100376.31
2022-09-12T11:32:41.943Z,100378.19
2022-09-12T11:35:24.793Z,100382.59
2022-09-12T11:38:07.615Z,100379.72
2022-09-12T11:41:02.742Z,100392.97
2022-09-12T11:43:34.464Z,100379.53
2022-09-12T11:46:13.437Z,100376.03
2022-09-12T11:48:47.954Z,100382.09
2022-09-12T11:51:19.847Z,100375.91
2022-09-12T11:54:05.767Z,100376.88
2022-09-12T11:56:32.737Z,100377.16
2022-09-12T11:59:03.664Z,100385.25
2022-09-12T12:01:42.893Z,100376.41
2022-09-12T12:04:12.315Z,100376.69
2022-09-12T12:07:05.325Z,100378.56
2022-09-12T12:09:31.899Z,100372.81
2022-09-12T12:11:58.552Z,100372.25
2022-09-12T12:17:00.062Z,100363.66
2022-09-12T12:19:36.026Z,100374.53
2022-09-12T12:25:17.212Z,100357.59
2022-09-12T12:27:49.382Z,100347.78
2022-09-12T12:30:31.395Z,100354.06
2022-09-12T12:33:13.265Z,100357.03
2022-09-12T12:35:46.430Z,100357.09
2022-09-12T12:38:31.710Z,100353.50
2022-09-12T12:41:16.622Z,100348.25
2022-09-12T12:43:52.895Z,100362.34
2022-09-12T12:46:20.678Z,100356.16
2022-09-12T12:49:05.545Z,100359.69
2022-09-12T12:52:08.768Z,100352.53
2022-09-12T12:54:41.123Z,100354.34
2022-09-12T12:57:13.531Z,100350.16
2022-09-12T13:00:32.064Z,100343.88
2022-09-12T13:03:06.575Z,100350.91
2022-09-12T13:05:39.880Z,100340.25
2022-09-12T13:08:11.493Z,100346.53
2022-09-12T13:10:38.065Z,100353.78
2022-09-12T13:13:06.299Z,100350.53
2022-09-12T13:15:35.917Z,100343.56
2022-09-12T13:18:24.351Z,100351.47
2022-09-12T13:21:10.194Z,100351.47
2022-09-12T13:23:36.786Z,100348.03
2022-09-12T13:26:03.831Z,100339.88
2022-09-12T13:28:30.689Z,100334.56
2022-09-12T13:31:19.009Z,100335.41
2022-09-12T13:33:50.847Z,100338.13
2022-09-12T13:36:26.656Z,100329.28
2022-09-12T13:39:03.346Z,100319.41
2022-09-12T13:42:24.300Z,100331.09
2022-09-12T13:45:11.909Z,100325.19
2022-09-12T13:47:44.122Z,100325.37
2022-09-12T13:50:19.105Z,100321.97
2022-09-12T13:52:47.464Z,100315.88
2022-09-12T13:55:37.777Z,100311.84
2022-09-12T13:58:05.818Z,100312.91
2022-09-12T14:00:34.958Z,100317.19
2022-09-12T14:03:20.431Z,100317.97
2022-09-12T14:05:54.437Z,100308.34
2022-09-12T14:08:21.095Z,100314.78
2022-09-12T14:10:50.243Z,100312.31
2022-09-12T14:13:24.153Z,100308.88
2022-09-12T14:15:54.854Z,100311.56
2022-09-12T14:18:25.660Z,100301.75
2022-09-12T14:20:53.268Z,100302.53
2022-09-12T14:23:33.048Z,100305.37
2022-09-12T14:26:05.692Z,100306.41
2022-09-12T14:28:32.222Z,100301.97
2022-09-12T14:31:02.067Z,100304.41
2022-09-12T14:33:29.224Z,100307.87
2022-09-12T14:36:12.771Z,100301.59
2022-09-12T14:38:47.102Z,100309.38
2022-09-12T14:41:14.345Z,100302.25
2022-09-12T14:43:44.377Z,100300.44
2022-09-12T14:46:23.704Z,100303.88
2022-09-12T14:48:55.163Z,100308.34
2022-09-12T14:52:08.218Z,100303.75
2022-09-12T14:54:37.275Z,100300.25
2022-09-12T14:57:06.219Z,100303.75
2022-09-12T14:59:35.504Z,100302.00
2022-09-12T15:02:14.370Z,100294.00
2022-09-12T15:04:42.222Z,100300.25
2022-09-12T15:07:55.355Z,100297.50
2022-09-12T15:10:35.535Z,100297.59
2022-09-12T15:13:16.807Z,100294.91
2022-09-12T15:15:45.185Z,100295.78
2022-09-12T15:18:12.171Z,100304.66
2022-09-12T15:20:39.916Z,100299.31
2022-09-12T15:23:08.162Z,100293.03
2022-09-12T15:25:34.712Z,100296.66
2022-09-12T15:28:01.879Z,100298.44
2022-09-12T15:30:28.453Z,100291.34
2022-09-12T15:32:55.195Z,100289.59
2022-09-12T15:35:23.118Z,100298.44
2022-09-12T15:37:49.863Z,100296.66
2022-09-12T15:40:16.853Z,100290.44
2022-09-12T15:42:43.836Z,100296.66
2022-09-12T15:45:20.294Z,100304.66
2022-09-12T15:47:46.910Z,100280.69
2022-09-12T15:50:13.553Z,100293.03
2022-09-12T15:52:40.431Z,100298.37
2022-09-12T15:55:26.191Z,100283.22
2022-09-12T15:57:52.797Z,100293.03
2022-09-12T16:00:19.571Z,100286.75
2022-09-12T16:02:53.697Z,100291.13
2022-09-12T16:05:22.434Z,100287.59
2022-09-12T16:07:51.033Z,100301.78
2022-09-12T16:10:19.526Z,100297.31
2022-09-12T16:12:46.211Z,100297.31
2022-09-12T16:15:20.687Z,100306.25
2022-09-12T16:17:47.419Z,100299.97
2022-09-12T16:20:14.003Z,100301.78
2022-09-12T16:22:40.626Z,100299.13
2022-09-12T16:25:08.063Z,100303.50
2022-09-12T16:27:35.145Z,100305.28
2022-09-12T16:30:01.970Z,100301.78
2022-09-12T16:32:28.529Z,100307.09
2022-09-12T16:34:55.089Z,100308.81
2022-09-12T16:37:21.623Z,100302.63
2022-09-12T16:39:49.045Z,100304.34
2022-09-12T16:42:19.172Z,100305.28
2022-09-12T16:44:47.049Z,100304.44
2022-09-12T16:47:14.355Z,100299.97
2022-09-12T16:49:40.928Z,100299.97
2022-09-12T16:52:07.775Z,100303.50
2022-09-12T16:54:34.425Z,100298.16
2022-09-12T16:57:00.990Z,100295.50
2022-09-12T16:59:27.694Z,100291.97
2022-09-12T17:01:54.366Z,100292.84
2022-09-12T17:04:23.577Z,100289.31
2022-09-12T17:06:50.358Z,100294.63
2022-09-12T17:09:18.615Z,100298.16
2022-09-12T17:11:47.233Z,100299.97
2022-09-12T17:14:13.834Z,100308.81
2022-09-12T17:16:51.490Z,100306.16
2022-09-12T17:19:32.333Z,100310.63
2022-09-12T17:21:58.950Z,100303.50
2022-09-12T17:24:25.587Z,100300.81
2022-09-12T17:26:54.772Z,100305.28
2022-09-12T17:29:21.320Z,100307.97
2022-09-12T17:31:48.149Z,100305.28
2022-09-12T17:34:15.253Z,100311.47
2022-09-12T17:36:44.355Z,100317.66
2022-09-12T17:39:11.678Z,100323.88
2022-09-12T17:41:38.552Z,100318.63
2022-09-12T17:44:07.305Z,100334.53
2022-09-12T17:46:35.630Z,100324.78
2022-09-12T17:49:03.633Z,100336.31
2022-09-12T17:51:31.137Z,100337.19
2022-09-12T17:54:17.365Z,100339.84
2022-09-12T17:56:45.497Z,100338.97
2022-09-12T17:59:19.863Z,100345.19
2022-09-12T18:02:05.356Z,100339.84
2022-09-12T18:04:32.484Z,100346.03
2022-09-12T18:07:00.356Z,100350.41
2022-09-12T18:09:27.135Z,100359.25
2022-09-12T18:11:53.894Z,100354.03
2022-09-12T18:14:20.570Z,100349.56
2022-09-12T18:16:47.561Z,100352.28
2022-09-12T18:19:14.304Z,100358.50
2022-09-12T18:21:40.871Z,100367.34
2022-09-12T18:24:07.464Z,100370.00
2022-09-12T18:26:34.541Z,100377.06
2022-09-12T18:29:01.163Z,100379.72
2022-09-12T18:31:29.829Z,100370.88
2022-09-12T18:33:56.951Z,100372.56
2022-09-12T18:36:23.627Z,100377.06
2022-09-12T18:38:50.260Z,100374.38
2022-09-12T18:41:20.926Z,100379.72
2022-09-12T18:43:47.706Z,100374.38
2022-09-12T18:46:17.885Z,100382.38
2022-09-12T18:48:45.112Z,100374.38
2022-09-12T18:51:19.897Z,100372.75
2022-09-12T18:53:54.216Z,100370.94
2022-09-12T18:56:24.041Z,100368.28
2022-09-12T18:58:52.936Z,100371.81
2022-09-12T19:01:24.533Z,100376.25
2022-09-12T19:03:52.170Z,100380.75
2022-09-12T19:06:26.748Z,100379.87
2022-09-12T19:08:56.468Z,100382.56
2022-09-12T19:11:23.567Z,100378.06
2022-09-12T19:13:51.091Z,100374.56
2022-09-12T19:16:19.441Z,100380.84
2022-09-12T19:18:48.119Z,100379.13
2022-09-12T19:21:16.215Z,100374.66
2022-09-12T19:23:42.813Z,100383.50
2022-09-12T19:26:10.857Z,100375.63
2022-09-12T19:28:37.518Z,100377.31
2022-09-12T19:31:05.921Z,100379.97
2022-09-12T19:33:32.573Z,100378.19
2022-09-12T19:36:27.263Z,100379.97
2022-09-12T19:38:56.479Z,100372.94
2022-09-12T19:41:23.217Z,100379.13
2022-09-12T19:43:49.789Z,100378.28
2022-09-12T19:46:17.465Z,100379.13
2022-09-12T19:48:44.994Z,100379.13
2022-09-12T19:51:11.900Z,100379.97
2022-09-12T19:53:38.440Z,100381.78
2022-09-12T19:56:05.524Z,100385.31
2022-09-12T19:58:32.741Z,100381.78
2022-09-12T20:01:16.055Z,100380.09
2022-09-12T20:03:43.976Z,100383.59
2022-09-12T20:06:15.101Z,100380.09
2022-09-12T20:08:44.418Z,100374.75
2022-09-12T20:11:12.519Z,100375.63
2022-09-12T20:13:39.232Z,100372.94
2022-09-12T20:16:18.994Z,100368.56
2022-09-12T20:18:49.412Z,100366.78
2022-09-12T20:21:20.055Z,100369.44
2022-09-12T20:23:46.840Z,100366.78
2022-09-12T20:26:13.737Z,100376.56
2022-09-12T20:28:40.746Z,100372.94
2022-09-12T20:31:12.053Z,100380.09
2022-09-12T20:33:38.832Z,100375.69
2022-09-12T20:36:07.930Z,100379.22
2022-09-12T20:38:34.499Z,100374.75
2022-09-12T20:41:02.235Z,100379.22
2022-09-12T20:43:28.789Z,100381.00
2022-09-12T20:45:55.615Z,100385.47
2022-09-12T20:48:22.200Z,100392.56
2022-09-12T20:50:48.810Z,100390.81
2022-09-12T20:53:15.366Z,100397.94
2022-09-12T20:55:49.881Z,100397.94
2022-09-12T20:58:16.666Z,100394.44
2022-09-12T21:00:43.300Z,100394.44
2022-09-12T21:03:09.831Z,100399.75
2022-09-12T21:05:36.352Z,100399.75
2022-09-12T21:08:02.940Z,100390.91
2022-09-12T21:10:30.956Z,100406.91
2022-09-12T21:12:57.535Z,100396.34
2022-09-12T21:15:24.193Z,100402.53
2022-09-12T21:17:51.705Z,100398.06
2022-09-12T21:20:18.275Z,100407.84
2022-09-12T21:22:44.824Z,100407.00
2022-09-12T21:25:11.850Z,100409.72
2022-09-12T21:27:38.503Z,100411.53
2022-09-12T21:30:05.591Z,100409.72
2022-09-12T21:32:35.670Z,100412.38
2022-09-12T21:35:03.234Z,100414.19
2022-09-12T21:37:29.793Z,100416.87
2022-09-12T21:39:56.357Z,100419.53
2022-09-12T21:42:22.957Z,100428.38
2022-09-12T21:44:49.528Z,100430.19
2022-09-12T21:47:16.198Z,100434.66
2022-09-12T21:49:42.789Z,100437.41
2022-09-12T21:52:09.348Z,100445.41
2022-09-12T21:54:35.944Z,100443.69
2022-09-12T21:57:02.495Z,100446.34
2022-09-12T21:59:29.075Z,100450.81
2022-09-12T22:01:55.726Z,100450.81
2022-09-12T22:04:22.331Z,100442.81
2022-09-12T22:06:51.518Z,100448.22
2022-09-12T22:09:18.104Z,100452.59
2022-09-12T22:19:26.224Z,100447.37
2022-09-12T22:22:11.374Z,100440.34
2022-09-12T22:24:37.939Z,100443.84
2022-09-12T22:27:05.431Z,100443.84
2022-09-12T22:29:33.334Z,100443.00
2022-09-12T22:32:00.074Z,100440.34
2022-09-12T22:34:27.147Z,100443.00
2022-09-12T22:36:53.695Z,100442.16
2022-09-12T22:39:20.275Z,100447.47
2022-09-12T22:41:46.855Z,100448.44
2022-09-12T22:44:13.496Z,100453.75
2022-09-12T22:46:40.312Z,100456.50
2022-09-12T22:49:07.376Z,100445.84
2022-09-12T22:51:34.065Z,100456.59
2022-09-12T22:54:00.627Z,100452.97
2022-09-12T22:56:27.351Z,100453.91
2022-09-12T22:58:54.131Z,100445.06
2022-09-12T23:01:20.701Z,100446.00
2022-09-12T23:03:47.305Z,100442.44
2022-09-12T23:06:13.894Z,100465.56
2022-09-12T23:08:40.458Z,100454.91
2022-09-12T23:11:12.889Z,100459.38
2022-09-12T23:13:39.631Z,100462.03
2022-09-12T23:16:07.013Z,100461.19
2022-09-12T23:18:36.671Z,100445.22
2022-09-12T23:21:07.504Z,100455.88
2022-09-12T23:23:34.277Z,100439.97
2022-09-12T23:26:13.798Z,100439.97
2022-09-12T23:28:41.343Z,100448.81
2022-09-12T23:31:09.500Z,100440.94
2022-09-12T23:33:36.288Z,100450.63
2022-09-12T23:36:11.388Z,100445.38
2022-09-12T23:38:37.934Z,100444.53
2022-09-12T23:41:04.568Z,100442.81
2022-09-12T23:43:31.544Z,100438.34
2022-09-12T23:45:58.422Z,100429.50
2022-09-12T23:48:25.036Z,100436.63
2022-09-12T23:50:51.763Z,100433.13
2022-09-12T23:53:18.403Z,100436.63
2022-09-12T23:55:45.030Z,100444.72
2022-09-12T23:58:11.927Z,100437.69
